Flight Track Log - Related Links

Times and Time Zones

All times are in EDT time to prevent confusion due to time zone crossing. See the EGF3755 flight status page for this flight to view local times or setup timezone preferences in your user account.

Time Position Orientation Groundspeed Altitude Reporting Facility
EDT Latitude Longitude Course Direction KTS MPH feet Rate Location/Type
Mon 03:02:56 PM 42.0686 -88.0014 261° West 217 250 3,900  Level Chicago Center
Mon 03:03:00 PM 41.9295 -88.3526 255° West  Level FlightAware Approximate
Mon 03:04:00 PM 42.0770 -88.1658 257° West  Level Estimated
Mon 03:04:00 PM 41.9123 -88.5040 261° West  Level FlightAware Approximate
Mon 03:05:00 PM 41.8944 -88.6562 261° West  Level FlightAware Approximate
Mon 03:06:00 PM 41.8767 -88.8084 261° West  Level FlightAware Approximate
Mon 03:07:00 PM 41.8592 -88.9607 261° West  Level FlightAware Approximate
Mon 03:08:00 PM 41.8416 -89.1128 261° West  Level FlightAware Approximate
Mon 03:08:06 PM 41.9753 -88.5242 229° Southwest 357 411 14,000  Level Chicago Center
Mon 03:10:10 PM 41.9072 -88.8278 253° West 394 453 16,000 1,258 Climbing Chicago Center
Mon 03:11:00 PM 42.1262 -89.2458 260° West  Level Estimated
Mon 03:11:12 PM 41.8858 -88.9669 258° West 387 445 17,900  Level Chicago Center
Mon 03:12:00 PM 42.0516 -89.3633 229° Southwest  Level FlightAware Approximate
Mon 03:12:15 PM 41.8619 -89.1061 257° West 386 444 19,800  Level Chicago Center
Mon 03:13:00 PM 41.9769 -89.4804 229° Southwest  Level FlightAware Approximate
Mon 03:13:17 PM 41.8358 -89.2467 256° West 392 451 21,300  Level Chicago Center
Mon 03:14:19 PM 41.8022 -89.4175 255° West 397 457 23,000 1,452 Climbing Chicago Center
Mon 03:15:21 PM 41.7733 -89.5628 255° West 404 465 24,300 1,089 Climbing Chicago Center
Mon 03:17:00 PM 41.7867 -89.8149 270° West  Level Estimated
Mon 03:18:27 PM 41.7672 -90.0453 270° West 433 498 27,500  Level Chicago Center
Mon 03:19:30 PM 41.7647 -90.2072 269° West 437 503 28,500 1,032 Climbing Chicago Center
Mon 03:21:00 PM 41.7760 -90.4364 270° West  Level Estimated
Mon 03:21:33 PM 41.7567 -90.5700 270° West 440 506 30,700  Level Chicago Center
Mon 03:22:35 PM 41.7533 -90.7258 268° West 441 507 31,600 843 Climbing Chicago Center
Mon 03:24:00 PM 41.7634 -90.9423 267° West  Level Estimated
Mon 03:25:42 PM 41.7364 -91.2511 268° West 444 511 34,200  Level Chicago Center
Mon 03:26:44 PM 41.7225 -91.4150 264° West 446 513 34,900 677 Climbing Chicago Center
Mon 03:27:46 PM 41.7164 -91.5797 267° West 446 513 35,600 355 Climbing Chicago Center
Mon 03:29:00 PM 41.7095 -91.7690 267° West  Level FlightAware Approximate
Mon 03:29:50 PM 41.7067 -91.9128 267° West 453 521 36,000  Level Chicago Center
Mon 03:30:52 PM 41.6989 -92.1172 267° West 460 529 36,000  Level Chicago Center
Mon 03:31:00 PM 41.7614 -92.0187 268° West  Level FlightAware Approximate
Mon 03:31:54 PM 41.6936 -92.2967 268° West 476 548 36,000  Level Chicago Center
Mon 03:32:56 PM 41.6872 -92.4756 267° West 481 554 36,000 460 Level Chicago Center
Mon 03:34:00 PM 41.6739 -92.7365 266° West  Level FlightAware Approximate
Mon 03:36:02 PM 41.6678 -92.9969 268° West 452 520 37,900  Level Chicago Center
Mon 03:36:26 PM 41.6653 -93.0658 267° West 455 524 38,000 70 Climbing Minneapolis Center
Mon 03:37:28 PM 41.6572 -93.2297 266° West 451 519 38,000  Level Minneapolis Center
Mon 03:38:30 PM 41.6492 -93.4303 267° West 453 521 38,000  Level Minneapolis Center
Mon 03:40:10 PM 41.6364 -93.6936 266° West 453 521 38,000  Level Chicago Center
Mon 03:41:00 PM 41.6218 -93.8214 268° West  Level FlightAware Approximate
Mon 03:41:12 PM 41.6292 -93.8581 267° West 449 517 38,000  Level Chicago Center
Mon 03:42:14 PM 41.6206 -94.0250 266° West 453 521 38,000  Level Chicago Center
Mon 03:42:36 PM 41.6194 -94.0875 269° West 452 520 38,000  Level Minneapolis Center
Mon 03:43:38 PM 41.6100 -94.2814 266° West 451 519 38,000  Level Minneapolis Center
Mon 03:44:40 PM 41.6008 -94.4489 266° West 452 520 38,000  Level Minneapolis Center
Mon 03:45:41 PM 41.5914 -94.6139 266° West 448 516 38,000  Level Minneapolis Center
Mon 03:46:43 PM 41.5806 -94.7803 265° West 450 518 38,000  Level Minneapolis Center
Mon 03:47:45 PM 41.5700 -94.9433 265° West 446 513 38,000  Level Minneapolis Center
Mon 03:48:46 PM 41.5625 -95.1047 266° West 439 505 38,000  Level Minneapolis Center
Mon 03:49:48 PM 41.5506 -95.3028 265° West 445 512 38,000  Level Minneapolis Center
Mon 03:50:50 PM 41.5400 -95.4675 265° West 448 516 38,000  Level Minneapolis Center
Mon 03:51:52 PM 41.5294 -95.6294 265° West 443 510 38,000  Level Minneapolis Center
Mon 03:53:00 PM 41.5164 -95.8032 264° West  Level FlightAware Approximate
Mon 03:53:55 PM 41.5083 -95.9619 264° West 441 507 38,000  Level Minneapolis Center
Mon 03:54:57 PM 41.4986 -96.1242 265° West 442 509 38,000  Level Minneapolis Center
Mon 03:55:59 PM 41.4864 -96.2869 264° West 442 509 38,000  Level Minneapolis Center
Mon 03:57:01 PM 41.4736 -96.4650 265° West 439 505 38,000  Level Minneapolis Center
Mon 03:58:02 PM 41.4617 -96.6267 264° West 441 507 38,000  Level Minneapolis Center
Mon 03:59:04 PM 41.4503 -96.7883 265° West 440 506 38,000  Level Minneapolis Center
Mon 04:00:06 PM 41.4375 -96.9503 264° West 440 506 38,000  Level Minneapolis Center
Mon 04:01:08 PM 41.4228 -97.1439 264° West 439 505 38,000  Level Minneapolis Center
Mon 04:03:11 PM 41.3975 -97.4664 264° West 438 504 38,000  Level Minneapolis Center
Mon 04:04:54 PM 41.3761 -97.7436 264° West 438 504 38,000  Level Denver Center
Mon 04:05:15 PM 41.3719 -97.7881 263° West 438 504 38,000  Level Minneapolis Center
Mon 04:06:58 PM 41.3486 -98.0650 264° West 437 503 38,000  Level Denver Center
Mon 04:07:59 PM 41.3344 -98.2247 263° West 436 502 38,000  Level Denver Center
Mon 04:08:20 PM 41.3292 -98.2883 264° West 436 502 38,000  Level Minneapolis Center
Mon 04:10:03 PM 41.3039 -98.5733 263° West 433 498 38,000  Level Denver Center
Mon 04:10:24 PM 41.3033 -98.5867 267° West 434 499 38,000  Level Minneapolis Center
Mon 04:11:26 PM 41.2844 -98.7769 263° West 433 498 38,000  Level Minneapolis Center
Mon 04:12:07 PM 41.2758 -98.8861 264° West 430 495 38,000  Level Denver Center
Mon 04:13:08 PM 41.2611 -99.0364 263° West 429 494 38,000  Level Denver Center
Mon 04:14:10 PM 41.2467 -99.1928 263° West 428 493 38,000  Level Denver Center
Mon 04:15:12 PM 41.2286 -99.3794 263° West 427 491 38,000  Level Denver Center
Mon 04:17:15 PM 41.1983 -99.6828 263° West 426 490 38,000  Level Denver Center
Mon 04:18:17 PM 41.1811 -99.8558 263° West 424 488 38,000  Level Denver Center
Mon 04:19:19 PM 41.1658 -100.0042 262° West 425 489 38,000  Level Denver Center
Mon 04:21:00 PM 41.1376 -100.2596 262° West  Level FlightAware Approximate
Mon 04:21:46 PM 41.1283 -100.3725 262° West 424 488 38,000  Level Minneapolis Center
Mon 04:22:24 PM 41.1147 -100.4956 262° West 423 487 38,000  Level Denver Center
Mon 04:23:26 PM 41.0986 -100.6422 262° West 423 487 38,000  Level Denver Center
Mon 04:24:27 PM 41.0811 -100.8119 262° West 422 486 38,000  Level Denver Center
Mon 04:25:29 PM 41.0642 -100.9581 261° West 424 488 38,000  Level Denver Center
Mon 04:26:31 PM 41.0475 -101.1042 261° West 424 488 38,000  Level Denver Center
Mon 04:28:00 PM 41.0120 -101.3263 262° West  Level FlightAware Approximate
Mon 04:28:34 PM 41.0108 -101.4219 262° West 424 488 38,000  Level Denver Center
Mon 04:30:50 PM 40.9689 -101.7889 262° West 426 490 38,000  Level Salt Lake Center
Mon 04:31:51 PM 40.9508 -101.9367 261° West 425 489 38,000  Level Salt Lake Center
Mon 04:32:41 PM 40.9350 -102.0633 261° West 427 491 38,000  Level Denver Center
Mon 04:33:43 PM 40.9142 -102.2364 261° West 428 493 38,000  Level Denver Center
Mon 04:34:44 PM 40.8953 -102.3847 260° West 428 493 38,000  Level Denver Center
Mon 04:35:46 PM 40.8781 -102.5339 261° West 429 494 38,000  Level Denver Center
Mon 04:36:48 PM 40.8550 -102.7044 260° West 425 489 38,000  Level Denver Center
Mon 04:37:49 PM 40.8375 -102.8531 261° West 427 491 38,000  Level Denver Center
Mon 04:39:53 PM 40.7953 -103.1717 260° West 429 494 38,000  Level Denver Center
Mon 04:40:54 PM 40.7747 -103.3289 260° West 433 498 38,000  Level Denver Center
Mon 04:41:56 PM 40.7503 -103.5103 260° West 429 494 38,000  Level Denver Center
Mon 04:42:58 PM 40.7283 -103.6678 260° West 432 497 38,000  Level Denver Center
Mon 04:43:59 PM 40.7083 -103.8242 260° West 431 496 38,000  Level Denver Center
Mon 04:45:01 PM 40.6858 -103.9825 259° West 437 503 38,000  Level Denver Center
Mon 04:46:03 PM 40.6669 -104.1181 260° West 453 521 38,000  Level Denver Center
Mon 04:48:06 PM 40.6194 -104.4594 260° West 436 502 38,000  Level Denver Center
Mon 04:49:08 PM 40.5964 -104.6175 259° West 436 502 38,000  Level Denver Center
Mon 04:51:12 PM 40.5467 -104.9608 259° West 438 504 38,000  Level Denver Center
Mon 04:52:13 PM 40.5225 -105.1181 259° West 438 504 38,000  Level Denver Center
Mon 04:54:17 PM 40.4750 -105.4336 259° West 440 506 38,000  Level Denver Center
Mon 04:56:00 PM 40.4377 -105.6747 259° West  Level FlightAware Approximate
Mon 04:57:26 PM 40.3964 -105.9328 258° West 442 509 38,000  Level Salt Lake Center
Mon 04:58:24 PM 40.3764 -106.0678 259° West 442 509 38,000  Level Denver Center
Mon 04:59:25 PM 40.3467 -106.2536 258° West 444 511 38,000  Level Denver Center
Mon 05:01:29 PM 40.2978 -106.5592 258° West 446 513 38,000  Level Denver Center
Mon 05:02:30 PM 40.2722 -106.7175 258° West 445 512 38,000  Level Denver Center
Mon 05:03:00 PM 40.2721 -106.7048 258° West  Level FlightAware Approximate
Mon 05:04:37 PM 40.2139 -107.0631 258° West 445 512 38,000  Level Salt Lake Center
Mon 05:05:35 PM 40.1892 -107.2142 258° West 446 513 38,000  Level Denver Center
Mon 05:06:37 PM 40.1594 -107.3911 258° West 446 513 38,000  Level Denver Center
Mon 05:07:39 PM 40.1339 -107.5433 258° West 447 514 38,000  Level Denver Center
Mon 05:09:42 PM 40.0769 -107.8722 257° West 449 517 38,000  Level Denver Center
Mon 05:10:44 PM 40.0725 -108.0275 268° West 456 525 38,000  Level Denver Center
Mon 05:11:58 PM 40.0811 -108.2078 274° West 449 517 38,000  Level Denver Center
Mon 05:13:00 PM 40.0894 -108.4161 273° West 452 520 38,000  Level Denver Center
Mon 05:14:02 PM 40.0961 -108.5708 273° West 449 517 38,000  Level Denver Center
Mon 05:15:03 PM 40.1031 -108.7542 273° West 454 522 38,000  Level Denver Center
Mon 05:15:53 PM 40.1086 -108.8842 273° West 454 522 38,000  Level Salt Lake Center
Mon 05:16:54 PM 40.1142 -109.0403 273° West 454 522 38,000  Level Salt Lake Center
Mon 05:18:09 PM 40.1211 -109.2500 273° West 454 522 38,000 -242 Level Denver Center
Mon 05:20:12 PM 40.1331 -109.5939 273° West 457 526 37,200 -421 Descending Denver Center
Mon 05:21:00 PM 40.1372 -109.7272 272° West 459 528 36,800 -491 Descending Salt Lake Center
Mon 05:22:02 PM 40.1425 -109.8842 273° West 455 524 36,300 -537 Descending Salt Lake Center
Mon 05:23:03 PM 40.1472 -110.0689 272° West 456 525 35,700 -519 Descending Salt Lake Center
Mon 05:25:07 PM 40.1569 -110.4117 272° West 456 525 34,700 -1,767 Descending Salt Lake Center
Mon 05:27:00 PM 40.1568 -110.6964 274° West  Level FlightAware Approximate
Mon 05:28:12 PM 40.1675 -110.9133 274° West 461 531 26,600  Level Salt Lake Center
Mon 05:29:13 PM 40.1728 -111.0936 272° West 450 518 23,400 -2,739 Descending Salt Lake Center
Mon 05:31:16 PM 40.1783 -111.4056 271° West 427 491 18,200 -2,250 Descending Salt Lake Center
Mon 05:31:37 PM 40.1722 -111.4683 263° West 417 480 18,000 -290 Descending Salt Lake Center
Mon 05:32:18 PM 40.1794 -111.5419 277° West 385 443 17,900 -857 Descending Salt Lake Center
Mon 05:33:08 PM 40.1772 -111.6522 269° West 337 388 16,700 -1,385 Descending Salt Lake Center
Mon 05:34:15 PM 40.2311 -111.7603 303° West 321 369 15,200 -938 Descending Salt Lake Center
Mon 05:35:16 PM 40.2894 -111.8361 315° West 291 335 14,700 -826 Descending Salt Lake Center
Mon 05:36:04 PM 40.3378 -111.8733 330° Northwest 268 308 13,700 -1,043 Descending Salt Lake Center
Mon 05:36:25 PM 40.3544 -111.8767 351° North 269 310 13,500 -689 Descending Salt Lake Center
Mon 05:37:05 PM 40.3861 -111.9328 307° West 237 273 13,000 -316 Descending Salt Lake Center
Mon 05:38:00 PM 40.4397 -111.9428 352° North 247 284 13,000  Level Salt Lake Center
Mon 05:38:28 PM 40.4708 -111.9319 15° North 244 281 13,000 -1,271 Level Salt Lake Center
Mon 05:39:25 PM 40.5339 -111.9392 355° North 247 284 11,200 -1,787 Descending Salt Lake Center
Mon 05:40:02 PM 40.5733 -111.9428 356° North 233 268 10,200 -1,594 Descending Salt Lake Center
Mon 05:41:33 PM 40.6669 -111.9508 356° North 232 267 7,800 -1,672 Descending Salt Lake Center
Mon 05:42:04 PM 40.6978 -111.9625 344° North 203 234 6,800 -1,935 Descending Salt Lake Center
Mon 05:42:35 PM 40.7217 -111.9631 359° North 201 231 5,800 -1,548 Descending Salt Lake Center
Mon 05:43:37 PM 40.7697 -111.9619 North 177 204 4,400 -1,355 Descending Salt Lake Center

Login

Don't have an account? Register now (free) for customized features, flight alerts, and more!